Time;durP1;ratioP1;P1;durP2;ratioP2;P2;SDS_P1;SDS_P2;PMS_P1;PMS_P2;Temp;Humidity;BMP_temperature;BMP_pressure;BME280_temperature;BME280_humidity;BME280_pressure;Samples;Min_cycle;Max_cycle;Signal;HPM_P1;HPM_P2
2021/12/20 00:07:40;;;;;;;2.25;1.73;;;;;;;20.63;nan;99895.66;20510930;28;98442;-57
2021/12/20 00:17:41;;;;;;;2.67;2.00;;;;;;;20.60;nan;99902.00;20496930;28;100680;-57
2021/12/20 00:27:42;;;;;;;2.92;1.95;;;;;;;20.58;nan;99945.13;20429866;28;101944;-57
2021/12/20 00:48:04;;;;;;;3.92;1.98;;;;;;;20.54;nan;99975.28;20425106;28;99823;-57
2021/12/20 00:58:07;;;;;;;2.70;1.67;;;;;;;20.51;nan;99992.16;20428627;28;99347;-56
2021/12/20 01:08:09;;;;;;;;;;;;;;;20.54;nan;99989.28;20437086;28;99879;-56
2021/12/20 01:18:13;;;;;;;1.70;1.38;;;;;;;20.48;nan;99987.13;20414385;28;99419;-57
2021/12/20 01:28:14;;;;;;;1.30;1.20;;;;;;;20.46;nan;99989.09;20416720;28;98906;-57
2021/12/20 01:38:15;;;;;;;1.33;1.13;;;;;;;20.44;nan;99991.00;20416857;28;102726;-57
2021/12/20 01:48:19;;;;;;;1.40;1.20;;;;;;;20.40;nan;99995.66;20433885;28;102283;-57
2021/12/20 01:58:21;;;;;;;1.42;1.17;;;;;;;20.40;nan;100024.59;20467274;28;98537;-56
2021/12/20 02:08:29;;;;;;;1.20;1.10;;;;;;;20.37;nan;100053.75;20450881;28;102198;-58
2021/12/20 02:18:30;;;;;;;1.20;1.10;;;;;;;20.36;nan;100049.47;20433041;28;100231;-58
2021/12/20 02:28:37;;;;;;;1.88;1.17;;;;;;;20.36;nan;100048.63;20443419;27;100004;-57
2021/12/20 02:38:38;;;;;;;1.40;1.17;;;;;;;20.34;nan;100061.88;20437207;28;102584;-57
2021/12/20 02:48:39;;;;;;;1.50;1.20;;;;;;;20.30;nan;100066.56;20426385;28;98821;-57
2021/12/20 02:58:41;;;;;;;1.23;1.00;;;;;;;20.29;nan;100062.25;20429526;28;99997;-57
2021/12/20 03:08:45;;;;;;;1.15;1.00;;;;;;;20.29;nan;100100.88;20425839;28;98110;-58
2021/12/20 03:18:46;;;;;;;1.10;0.95;;;;;;;20.26;nan;100127.38;20481083;28;97657;-57
2021/12/20 03:28:51;;;;;;;1.00;0.90;;;;;;;20.24;nan;100131.94;20429640;28;98388;-58
2021/12/20 03:38:52;;;;;;;1.15;0.95;;;;;;;20.21;nan;100134.78;20423513;28;100606;-56
2021/12/20 03:48:53;;;;;;;1.42;1.10;;;;;;;20.20;nan;100155.00;20409590;28;102134;-57
2021/12/20 03:58:54;;;;;;;0.95;0.90;;;;;;;20.20;nan;100164.66;20435542;28;100179;-58
2021/12/20 04:08:54;;;;;;;1.25;0.98;;;;;;;20.18;nan;100184.97;20456582;28;101169;-57
2021/12/20 04:19:03;;;;;;;0.85;0.80;;;;;;;20.16;nan;100200.88;20461934;28;100091;-57
2021/12/20 04:29:04;;;;;;;1.10;1.00;;;;;;;20.15;nan;100197.41;20418804;28;98412;-58
2021/12/20 04:39:14;;;;;;;1.10;1.00;;;;;;;20.12;nan;100209.94;20416119;28;101728;-58
2021/12/20 04:49:16;;;;;;;2.88;0.90;;;;;;;20.19;nan;100205.03;20432962;28;100007;-57
2021/12/20 04:59:17;;;;;;;3.95;0.90;;;;;;;20.28;nan;100214.88;20414406;28;103671;-57
2021/12/20 05:09:18;;;;;;;1.35;0.90;;;;;;;20.26;nan;100224.66;20409798;28;99149;-57
2021/12/20 05:19:20;;;;;;;9.15;0.98;;;;;;;20.32;nan;100242.59;20430555;28;101279;-57
2021/12/20 05:29:22;;;;;;;2.88;1.23;;;;;;;20.46;nan;100249.47;20433500;28;100606;-56
2021/12/20 05:39:23;;;;;;;2.78;1.00;;;;;;;20.59;nan;100244.06;20443204;28;98538;-56
2021/12/20 05:49:23;;;;;;;5.35;1.13;;;;;;;20.71;nan;100263.34;20437106;28;101693;-57
2021/12/20 05:59:24;;;;;;;5.50;1.00;;;;;;;20.83;nan;100274.75;20433685;28;102440;-58
2021/12/20 06:09:28;;;;;;;5.53;1.15;;;;;;;20.88;nan;100305.00;20506103;28;97997;-57
2021/12/20 06:19:29;;;;;;;3.33;1.50;;;;;;;20.66;nan;100315.47;20508270;28;100193;-58
2021/12/20 06:29:29;;;;;;;10.05;1.10;;;;;;;20.79;nan;100314.44;20423647;28;99083;-58
2021/12/20 06:39:31;;;;;;;5.68;1.30;;;;;;;20.90;nan;100334.69;20479368;28;101895;-58
2021/12/20 06:49:31;;;;;;;4.35;1.70;;;;;;;20.97;nan;100326.31;20441179;28;100318;-58
2021/12/20 06:59:32;;;;;;;6.32;1.30;;;;;;;21.04;nan;100340.66;20500243;28;99110;-58
2021/12/20 07:09:32;;;;;;;3.65;1.25;;;;;;;21.13;nan;100350.50;20455934;28;98563;-58
2021/12/20 07:19:33;;;;;;;4.72;1.23;;;;;;;21.15;nan;100340.66;20427227;28;102050;-58
2021/12/20 07:29:36;;;;;;;2.53;1.15;;;;;;;21.19;nan;100339.47;20434566;28;100064;-57
2021/12/20 07:39:37;;;;;;;2.47;1.10;;;;;;;21.27;nan;100341.50;20429264;28;97595;-59
2021/12/20 07:49:39;;;;;;;6.05;1.30;;;;;;;21.33;nan;100356.00;20481505;28;99514;-58
2021/12/20 07:59:39;;;;;;;4.43;1.38;;;;;;;21.43;nan;100370.97;20454870;28;101832;-58
2021/12/20 08:09:42;;;;;;;4.20;1.80;;;;;;;21.35;nan;100356.69;20446016;28;98911;-58
2021/12/20 08:19:44;;;;;;;6.47;2.40;;;;;;;21.33;nan;100364.72;20431538;28;101872;-58
2021/12/20 08:29:44;;;;;;;6.82;3.10;;;;;;;21.41;nan;100375.50;20420873;28;101811;-58
2021/12/20 08:39:46;;;;;;;8.27;3.78;;;;;;;21.46;nan;100385.69;20442989;28;101333;-58
2021/12/20 08:49:47;;;;;;;8.73;4.28;;;;;;;21.52;nan;100402.78;20441708;28;98740;-57
2021/12/20 08:59:48;;;;;;;6.95;4.60;;;;;;;21.62;nan;100376.56;20440059;28;101917;-58
2021/12/20 09:09:49;;;;;;;11.60;7.07;;;;;;;21.68;nan;100362.91;20429152;28;98318;-58
2021/12/20 09:19:51;;;;;;;9.77;6.90;;;;;;;21.76;nan;100357.88;20432747;28;102594;-57
2021/12/20 09:29:51;;;;;;;13.00;8.30;;;;;;;21.82;nan;100344.19;20461786;28;97818;-58
2021/12/20 09:39:55;;;;;;;11.35;8.35;;;;;;;21.84;nan;100325.66;20475653;28;99194;-58
2021/12/20 09:49:56;;;;;;;13.52;10.05;;;;;;;21.88;nan;100313.88;20430095;28;97824;-58
2021/12/20 09:59:59;;;;;;;15.70;10.45;;;;;;;21.94;nan;100315.19;20499327;28;98555;-60
2021/12/20 10:10:05;;;;;;;19.25;10.23;;;;;;;22.00;nan;100331.31;20481523;28;98993;-59
2021/12/20 10:20:23;;;;;;;15.75;9.55;;;;;;;22.08;nan;100328.03;20445475;28;100786;-58
2021/12/20 10:30:28;;;;;;;16.88;10.02;;;;;;;22.15;nan;100323.94;20432813;28;101567;-58
2021/12/20 10:40:29;;;;;;;18.98;7.90;;;;;;;22.16;nan;100335.34;20475502;28;97943;-59
2021/12/20 10:50:34;;;;;;;11.52;8.15;;;;;;;22.23;nan;100332.06;20456286;28;98463;-58
2021/12/20 11:00:37;;;;;;;17.38;8.55;;;;;;;22.33;nan;100308.41;20449378;28;97792;-57
2021/12/20 11:10:39;;;;;;;10.98;7.53;;;;;;;22.45;nan;100318.91;20454577;28;97788;-57
2021/12/20 11:20:39;;;;;;;9.82;7.10;;;;;;;22.53;nan;100335.78;20437229;28;97557;-57
2021/12/20 11:30:40;;;;;;;11.48;7.22;;;;;;;22.60;nan;100346.66;20437525;28;99051;-58
2021/12/20 11:40:41;;;;;;;12.75;6.93;;;;;;;22.64;nan;100373.63;20438253;28;98683;-58
2021/12/20 11:50:43;;;;;;;61.13;23.80;;;;;;;22.77;nan;100384.81;20448645;28;101419;-58
2021/12/20 12:00:52;;;;;;;34.35;18.90;;;;;;;22.77;nan;100387.47;20432545;28;97750;-58
2021/12/20 12:10:57;;;;;;;38.20;17.60;;;;;;;22.71;nan;100403.81;20439185;28;99311;-58
2021/12/20 12:20:59;;;;;;;31.65;16.35;;;;;;;22.66;nan;100412.13;20424769;28;101470;-57
2021/12/20 12:31:05;;;;;;;33.35;15.63;;;;;;;22.56;nan;100408.59;20434281;28;104854;-57
2021/12/20 12:41:09;;;;;;;25.52;13.48;;;;;;;22.47;nan;100404.06;20448438;28;98653;-57
2021/12/20 12:51:38;;;;;;;23.75;11.48;;;;;;;22.42;nan;100403.59;20451214;28;99335;-58
2021/12/20 13:01:47;;;;;;;18.67;10.20;;;;;;;22.41;nan;100410.69;20430666;28;100198;-56
2021/12/20 13:11:48;;;;;;;18.48;9.57;;;;;;;22.44;nan;100414.88;20431019;28;97459;-57
2021/12/20 13:21:59;;;;;;;29.25;11.77;;;;;;;22.46;nan;100426.13;20431768;28;103959;-61
2021/12/20 13:32:12;;;;;;;25.20;10.13;;;;;;;22.50;nan;100440.75;20422752;28;101612;-56
2021/12/20 13:42:12;;;;;;;19.52;8.68;;;;;;;22.47;nan;100451.56;20433408;28;101054;-56
2021/12/20 13:52:13;;;;;;;15.53;7.67;;;;;;;22.34;nan;100465.72;20417524;28;98978;-57
2021/12/20 14:02:17;;;;;;;17.50;6.93;;;;;;;22.33;nan;100479.03;20432089;28;101800;-58
2021/12/20 14:12:19;;;;;;;12.15;6.35;;;;;;;22.20;nan;100495.84;20436153;28;101757;-57
2021/12/20 14:22:20;;;;;;;12.17;5.70;;;;;;;22.13;nan;100501.72;20429579;27;102493;-57
2021/12/20 14:32:38;;;;;;;10.35;5.45;;;;;;;22.10;nan;100510.72;20450143;28;98299;-56
2021/12/20 14:42:38;;;;;;;12.95;5.55;;;;;;;21.96;nan;100509.19;20470144;28;101681;-57
2021/12/20 14:52:40;;;;;;;8.05;4.07;;;;;;;21.88;nan;100501.03;20487208;28;100232;-57
2021/12/20 15:02:42;;;;;;;9.98;4.38;;;;;;;21.89;nan;100518.53;20424810;28;100932;-57
2021/12/20 15:12:46;;;;;;;9.80;4.00;;;;;;;21.82;nan;100523.44;20446764;28;97495;-57
2021/12/20 15:22:47;;;;;;;8.20;3.80;;;;;;;21.80;nan;100513.97;20429931;28;100175;-56
2021/12/20 15:32:49;;;;;;;7.28;3.55;;;;;;;21.78;nan;100534.38;20437038;28;100554;-57
2021/12/20 15:42:59;;;;;;;8.57;3.58;;;;;;;21.68;nan;100539.47;20436653;28;98597;-57
2021/12/20 15:53:00;;;;;;;5.25;2.85;;;;;;;21.58;nan;100542.84;20434924;28;101180;-58
2021/12/20 16:03:01;;;;;;;7.05;3.22;;;;;;;21.54;nan;100551.88;20456678;28;99366;-57
2021/12/20 16:13:03;;;;;;;4.65;2.78;;;;;;;21.51;nan;100559.22;20508184;28;101819;-57
2021/12/20 16:23:03;;;;;;;9.20;3.17;;;;;;;21.37;nan;100554.97;20497238;28;101713;-58
2021/12/20 16:33:07;;;;;;;3.47;2.40;;;;;;;21.26;nan;100561.91;20516678;28;99581;-56
2021/12/20 16:43:08;;;;;;;7.65;3.10;;;;;;;21.26;nan;100559.28;20519248;27;97960;-57
2021/12/20 16:53:08;;;;;;;5.53;2.75;;;;;;;21.24;nan;100561.16;20514099;28;98127;-57
2021/12/20 17:03:29;;;;;;;7.87;3.10;;;;;;;21.20;nan;100572.91;20505716;28;101743;-58
2021/12/20 17:13:30;;;;;;;11.27;3.80;;;;;;;21.32;nan;100565.84;20499677;28;99373;-56
2021/12/20 17:23:31;;;;;;;11.23;4.30;;;;;;;21.44;nan;100579.91;20499949;28;98677;-58
2021/12/20 17:33:31;;;;;;;8.15;5.20;;;;;;;21.57;nan;100593.03;20504148;28;97844;-57
2021/12/20 17:43:34;;;;;;;15.85;5.70;;;;;;;21.54;nan;100574.78;20501081;28;99570;-57
2021/12/20 17:53:36;;;;;;;49.17;22.08;;;;;;;21.61;nan;100591.81;20498119;28;102111;-57
2021/12/20 18:03:37;;;;;;;73.50;29.50;;;;;;;21.65;nan;100597.72;20503396;28;98039;-58
2021/12/20 18:13:39;;;;;;;99.45;51.45;;;;;;;21.67;nan;100606.34;20503958;28;97883;-58
2021/12/20 18:23:41;;;;;;;83.17;46.13;;;;;;;21.70;nan;100600.81;20493169;28;103354;-56
2021/12/20 18:33:43;;;;;;;80.50;40.80;;;;;;;21.77;nan;100604.69;20507643;28;98007;-57
2021/12/20 18:43:44;;;;;;;69.87;36.33;;;;;;;21.81;nan;100618.47;20499562;28;99232;-58
2021/12/20 18:53:45;;;;;;;75.80;40.35;;;;;;;21.89;nan;100634.53;20509378;28;97645;-57
2021/12/20 19:03:46;;;;;;;73.82;37.92;;;;;;;21.92;nan;100634.28;20515707;28;98825;-57
2021/12/20 19:13:52;;;;;;;73.77;33.60;;;;;;;21.89;nan;100637.16;20514122;28;101450;-57
2021/12/20 19:23:53;;;;;;;63.13;29.77;;;;;;;21.88;nan;100638.94;20510065;28;98116;-56
2021/12/20 19:33:55;;;;;;;52.38;28.42;;;;;;;21.87;nan;100639.06;20516173;28;97705;-57
2021/12/20 19:43:57;;;;;;;50.43;26.37;;;;;;;21.87;nan;100649.63;20510595;28;98663;-57
2021/12/20 19:53:58;;;;;;;46.60;23.55;;;;;;;21.83;nan;100656.91;20505519;28;102453;-56
2021/12/20 20:03:59;;;;;;;47.08;22.40;;;;;;;21.83;nan;100658.72;20500345;28;98497;-56
2021/12/20 20:13:59;;;;;;;40.40;20.10;;;;;;;21.78;nan;100660.88;20499931;28;98196;-55
2021/12/20 20:24:02;;;;;;;28.42;15.52;;;;;;;21.59;nan;100659.59;20503102;28;99669;-57
2021/12/20 20:34:03;;;;;;;38.30;14.73;;;;;;;21.57;nan;100661.53;20490254;28;99665;-57
2021/12/20 20:44:06;;;;;;;29.02;13.55;;;;;;;21.51;nan;100644.34;20461321;28;98305;-57
2021/12/20 20:54:07;;;;;;;25.55;13.13;;;;;;;21.47;nan;100652.59;20424337;28;98934;-55
2021/12/20 21:04:14;;;;;;;22.38;11.25;;;;;;;21.43;nan;100670.41;20424358;28;99444;-56
2021/12/20 21:14:15;;;;;;;19.20;10.30;;;;;;;21.37;nan;100682.28;20495002;28;98592;-56
2021/12/20 21:24:17;;;;;;;19.77;10.30;;;;;;;21.34;nan;100690.38;20436237;28;98026;-57
2021/12/20 21:34:18;;;;;;;18.00;9.20;;;;;;;21.29;nan;100689.88;20427849;28;97819;-57
2021/12/20 21:44:20;;;;;;;15.23;8.98;;;;;;;21.21;nan;100703.59;20446988;28;98031;-56
2021/12/20 21:54:20;;;;;;;16.88;8.75;;;;;;;21.18;nan;100724.91;20418203;28;98586;-56
2021/12/20 22:04:22;;;;;;;14.80;7.70;;;;;;;21.19;nan;100731.84;20424680;28;101447;-57
2021/12/20 22:14:24;;;;;;;14.05;7.70;;;;;;;21.16;nan;100744.41;20427633;28;99390;-58
2021/12/20 22:24:25;;;;;;;12.23;7.10;;;;;;;21.14;nan;100755.06;20429415;28;102329;-57
2021/12/20 22:34:26;;;;;;;10.65;6.40;;;;;;;21.09;nan;100758.00;20437880;28;97673;-57
2021/12/20 22:44:27;;;;;;;11.95;6.57;;;;;;;21.04;nan;100775.91;20437432;28;99452;-57
2021/12/20 22:54:28;;;;;;;11.38;6.25;;;;;;;20.98;nan;100765.81;20434079;28;103268;-56
2021/12/20 23:04:30;;;;;;;8.68;5.47;;;;;;;20.92;nan;100760.97;20432694;28;98647;-57
2021/12/20 23:14:31;;;;;;;9.03;5.67;;;;;;;20.88;nan;100788.47;20438607;28;99436;-57
2021/12/20 23:24:32;;;;;;;8.65;5.18;;;;;;;20.86;nan;100785.94;20432028;28;98292;-57
2021/12/20 23:34:32;;;;;;;7.43;5.05;;;;;;;20.82;nan;100759.94;20435934;28;99190;-57
2021/12/20 23:44:33;;;;;;;7.80;4.80;;;;;;;20.78;nan;100775.94;20424791;28;99253;-57
2021/12/20 23:54:35;;;;;;;7.97;4.40;;;;;;;20.72;nan;100780.81;20419572;28;98234;-57
